Kezdőlap
METAR-TAF:

METAR-TAF

Repülőterek :

San Antonio del Táchira, Venezuela

földrajzi szélesség: 07-51N, földrajzi hosszúság: 072-27W, magasság: 377 m

METAR: hiányzik

Idő: 04:46 (08:46 UTC)

Előrejelzés

A jelentés 10 órával és 46 perccel ezelõtt készült, 22:00 UTC
Az előrejelzés 26-én 00 óra UTC és 27-én 00 óra UTC között érvényes
Kelet-délkeleti szél 6 kt
Látótávolság 10 km, vagy több
Szórványos felhőzet 2000 lábon
26-én 0500 órától UTC szerint
Keleti szél 2 kt
Látótávolság 10 km, vagy több
Szakadozott felhőzet 1300 lábon
26-én 06 óra UTC és 26-én 10 óra UTC között ideiglenes
Látótávolság: 9000 m
Szórványos felhőzet 2000 lábon
Szakadozott felhőzet 5000 lábon
enyhe szitálás,

TAF: SVSA 252200Z 2600/2700 12006KT 9999 SCT020 TX30/2618Z TN16/2608Z FM260500 08002KT 9999 BKN013 TEMPO 2606/2610 9000 -DZ SCT020 BKN050

Meteorológiai megfigyelések és előrejelzések több, mint 4000 repülőtéren (METAR és TAF jelentéseket).

A térképen piros és sárga pontok jelzik az elérhető meteorológiai állomásokat.

Mozgassa az egeret a pont fölött, hogy megjelenjen az állomás neve.

Azután kattintson az időjárási megfigyelések és előrejelzések megtekintéséhez.

A térkép megváltoztatása: kattintson a fekete keresztel jelölt zöld gombra ráközelítéshez, a vonallal jelölt zöld gombra távolításhoz, vagy a zöld nyilakra a szomszédos térképek eléréséhez.


METAR-TAF: